Time;durP1;ratioP1;P1;durP2;ratioP2;P2;SDS_P1;SDS_P2;PMS_P1;PMS_P2;Temp;Humidity;BMP_temperature;BMP_pressure;BME280_temperature;BME280_humidity;BME280_pressure;Samples;Min_cycle;Max_cycle;Signal;HPM_P1;HPM_P2
2022/10/24 00:00:32;;;;;;;831.57;741.70;;;18.60;8.60;;;;;;4954405;28;20555;-68
2022/10/24 00:02:58;;;;;;;752.50;676.80;;;18.50;8.80;;;;;;4954336;28;20201;-68
2022/10/24 00:05:24;;;;;;;350.33;324.13;;;18.40;9.20;;;;;;4954423;28;20480;-68
2022/10/24 00:07:50;;;;;;;961.50;852.53;;;18.40;9.50;;;;;;4954519;28;20422;-68
2022/10/24 00:10:17;;;;;;;694.60;618.33;;;18.30;9.90;;;;;;4952783;28;20503;-69
2022/10/24 00:12:43;;;;;;;528.97;481.23;;;18.20;10.10;;;;;;4954064;28;20417;-68
2022/10/24 00:15:09;;;;;;;478.67;431.27;;;18.10;10.50;;;;;;4954166;29;20432;-68
2022/10/24 00:17:34;;;;;;;872.80;788.03;;;18.00;10.70;;;;;;4954220;28;20418;-69
2022/10/24 00:20:00;;;;;;;778.50;702.87;;;17.90;11.00;;;;;;4954247;28;20453;-68
2022/10/24 00:22:26;;;;;;;783.43;708.53;;;17.80;11.30;;;;;;4953860;28;20676;-68
2022/10/24 00:24:52;;;;;;;890.50;797.63;;;17.80;11.80;;;;;;4952978;29;20485;-69
2022/10/24 00:27:18;;;;;;;777.03;720.03;;;17.80;11.80;;;;;;4954004;28;20776;-68
2022/10/24 00:29:44;;;;;;;230.23;212.20;;;17.70;12.20;;;;;;4952745;28;20220;-68
2022/10/24 00:32:10;;;;;;;935.63;838.93;;;17.70;12.90;;;;;;4953942;28;20577;-68
2022/10/24 00:34:37;;;;;;;953.97;854.50;;;17.60;13.20;;;;;;4953914;28;20178;-68
2022/10/24 00:37:03;;;;;;;663.67;614.13;;;17.40;14.00;;;;;;4953959;28;20445;-68
2022/10/24 00:39:28;;;;;;;850.47;774.13;;;17.30;14.70;;;;;;4954379;28;20789;-68
2022/10/24 00:41:57;;;;;;;812.00;743.13;;;17.20;14.60;;;;;;4953420;28;20433;-69
2022/10/24 00:44:26;;;;;;;770.93;695.23;;;17.20;14.60;;;;;;4953931;28;20186;-68
2022/10/24 00:47:05;;;;;;;764.07;698.53;;;17.10;15.20;;;;;;4953835;28;20468;-68
2022/10/24 00:49:36;;;;;;;863.77;793.60;;;17.00;16.20;;;;;;4954049;28;20990;-68
2022/10/24 00:52:06;;;;;;;604.80;558.10;;;16.80;17.20;;;;;;4951287;28;20474;-68
2022/10/24 00:54:33;;;;;;;922.00;841.30;;;16.80;17.80;;;;;;4953735;28;20410;-68
2022/10/24 00:57:12;;;;;;;803.10;735.83;;;16.70;18.40;;;;;;4953733;28;20413;-68
2022/10/24 00:59:40;;;;;;;890.77;811.67;;;16.60;18.60;;;;;;4954196;28;20414;-68
2022/10/24 01:02:06;;;;;;;839.23;764.47;;;16.60;18.60;;;;;;4953602;28;20824;-68
2022/10/24 01:04:32;;;;;;;686.10;627.10;;;16.60;18.60;;;;;;4953799;28;20545;-68
2022/10/24 01:07:17;;;;;;;775.07;715.67;;;16.50;18.50;;;;;;4953528;28;20257;-68
2022/10/24 01:10:10;;;;;;;961.27;868.83;;;16.50;18.50;;;;;;4953608;28;20209;-68
2022/10/24 01:13:00;;;;;;;764.40;696.80;;;16.50;19.10;;;;;;4953357;28;20442;-68
2022/10/24 01:15:44;;;;;;;783.87;717.90;;;16.50;19.00;;;;;;4953472;28;20932;-68
2022/10/24 01:18:23;;;;;;;798.73;738.23;;;16.50;19.00;;;;;;4953835;28;20774;-68
2022/10/24 01:21:06;;;;;;;863.27;789.13;;;16.50;19.60;;;;;;4952274;28;20452;-68
2022/10/24 01:23:40;;;;;;;690.47;637.40;;;16.50;20.00;;;;;;4954109;28;20409;-67
2022/10/24 01:27:00;;;;;;;830.07;765.30;;;16.50;19.90;;;;;;4954181;28;20421;-67
2022/10/24 01:29:46;;;;;;;641.73;593.30;;;16.50;20.00;;;;;;4933015;29;20873;-68
2022/10/24 01:32:33;;;;;;;554.17;511.00;;;16.50;19.90;;;;;;4953436;28;20406;-69
2022/10/24 01:35:15;;;;;;;840.07;771.07;;;16.50;19.70;;;;;;4953392;28;20405;-68
2022/10/24 01:38:15;;;;;;;726.67;666.17;;;16.60;19.40;;;;;;4952020;29;20468;-68
2022/10/24 01:40:52;;;;;;;685.57;634.77;;;16.60;19.30;;;;;;4953288;28;20484;-69
2022/10/24 01:43:24;;;;;;;761.50;694.27;;;16.70;19.30;;;;;;4953255;28;20420;-68
2022/10/24 01:45:55;;;;;;;976.00;885.33;;;16.70;19.20;;;;;;4953473;28;20456;-69
2022/10/24 01:48:23;;;;;;;889.73;816.00;;;16.80;19.00;;;;;;4953187;28;20496;-69
2022/10/24 01:50:52;;;;;;;933.97;847.53;;;16.80;18.70;;;;;;4953274;28;20469;-69
2022/10/24 01:53:18;;;;;;;487.00;452.50;;;16.80;18.70;;;;;;4953246;28;20410;-69
2022/10/24 01:55:45;;;;;;;795.60;724.30;;;16.90;19.60;;;;;;4953385;28;20425;-69
2022/10/24 01:58:11;;;;;;;1064.80;974.37;;;16.90;20.00;;;;;;4953177;28;20409;-69
2022/10/24 02:00:37;;;;;;;930.07;848.57;;;16.90;20.50;;;;;;4953079;28;20492;-70
2022/10/24 02:03:20;;;;;;;650.37;598.03;;;16.90;20.80;;;;;;4953107;28;20189;-69
2022/10/24 02:05:51;;;;;;;554.03;506.30;;;16.90;20.70;;;;;;4956712;28;20185;-69
2022/10/24 02:08:24;;;;;;;966.63;880.67;;;17.00;20.70;;;;;;4956574;28;20452;-69
2022/10/24 02:10:57;;;;;;;918.60;839.87;;;17.00;21.20;;;;;;4956302;28;20434;-69
2022/10/24 02:13:39;;;;;;;833.40;765.77;;;16.90;21.70;;;;;;4956465;28;20422;-69
2022/10/24 02:16:05;;;;;;;1052.57;951.23;;;16.80;21.40;;;;;;4956548;28;20420;-69
2022/10/24 02:18:32;;;;;;;785.63;722.00;;;16.80;21.30;;;;;;4955141;29;20420;-69
2022/10/24 02:21:22;;;;;;;844.90;773.57;;;16.80;20.90;;;;;;4956183;28;20446;-69
2022/10/24 02:23:58;;;;;;;806.53;731.90;;;16.90;21.40;;;;;;4956426;28;20501;-69
2022/10/24 02:26:33;;;;;;;747.60;682.87;;;16.90;21.30;;;;;;4956328;28;20885;-69
2022/10/24 02:29:05;;;;;;;774.13;708.97;;;16.90;21.30;;;;;;4956302;28;20453;-69
2022/10/24 02:31:35;;;;;;;752.80;693.07;;;16.80;21.60;;;;;;4955907;28;20431;-69
2022/10/24 02:34:04;;;;;;;840.73;779.30;;;16.70;22.50;;;;;;4956218;28;20546;-69
2022/10/24 02:36:31;;;;;;;722.57;662.37;;;16.70;22.40;;;;;;4956011;28;20425;-69
2022/10/24 02:38:58;;;;;;;806.23;737.53;;;16.60;22.80;;;;;;4956105;28;20528;-69
2022/10/24 02:41:34;;;;;;;491.00;449.57;;;16.50;23.40;;;;;;4955587;28;20492;-69
2022/10/24 02:44:01;;;;;;;459.17;423.77;;;16.50;22.80;;;;;;4956221;28;20807;-69
2022/10/24 02:46:28;;;;;;;640.03;592.07;;;16.50;22.80;;;;;;4955972;28;20481;-69
2022/10/24 02:48:58;;;;;;;856.67;791.63;;;16.50;22.80;;;;;;4955904;28;20834;-69
2022/10/24 02:51:27;;;;;;;888.63;819.00;;;16.40;22.80;;;;;;4955372;28;20855;-69
2022/10/24 02:53:52;;;;;;;633.03;587.60;;;16.40;22.80;;;;;;4955774;28;20414;-69
2022/10/24 02:56:18;;;;;;;692.17;639.50;;;16.30;22.70;;;;;;4955754;28;20410;-69
2022/10/24 02:58:44;;;;;;;623.03;572.70;;;16.40;22.70;;;;;;4955807;28;20260;-69
2022/10/24 03:01:09;;;;;;;685.07;630.53;;;16.40;22.70;;;;;;4955347;28;20194;-69
2022/10/24 03:03:35;;;;;;;869.40;797.57;;;16.40;22.70;;;;;;4954496;28;20182;-69
2022/10/24 03:06:00;;;;;;;473.10;437.17;;;16.40;22.70;;;;;;4955689;28;20192;-69
2022/10/24 03:08:26;;;;;;;867.00;792.47;;;16.50;22.80;;;;;;4955757;28;20213;-69
2022/10/24 03:10:51;;;;;;;737.20;678.17;;;16.50;22.80;;;;;;4955156;28;20198;-69
2022/10/24 03:13:17;;;;;;;647.73;592.33;;;16.50;22.70;;;;;;4955339;28;20170;-69
2022/10/24 03:15:43;;;;;;;945.20;868.30;;;16.50;22.80;;;;;;4972822;28;20200;-69
2022/10/24 03:18:08;;;;;;;735.77;671.37;;;16.50;22.80;;;;;;4974690;28;20537;-70
2022/10/24 03:20:34;;;;;;;772.87;712.80;;;16.50;22.80;;;;;;4974566;28;20201;-70
2022/10/24 03:22:59;;;;;;;800.57;739.83;;;16.50;22.80;;;;;;4974372;28;20209;-69
2022/10/24 03:25:25;;;;;;;746.27;687.20;;;16.50;22.80;;;;;;4974620;28;20177;-69
2022/10/24 03:27:50;;;;;;;735.53;683.10;;;16.50;22.80;;;;;;4974680;28;20184;-69
2022/10/24 03:30:16;;;;;;;765.47;709.40;;;16.50;22.80;;;;;;4974394;28;20216;-69
2022/10/24 03:32:42;;;;;;;642.63;590.77;;;16.50;22.40;;;;;;4974130;28;20496;-70
2022/10/24 03:35:07;;;;;;;634.33;586.37;;;16.50;22.80;;;;;;4974269;28;20205;-69
2022/10/24 03:37:33;;;;;;;683.43;624.00;;;16.50;22.30;;;;;;4973088;28;20208;-70
2022/10/24 03:39:59;;;;;;;877.90;802.23;;;16.50;22.20;;;;;;4973922;28;20651;-70
2022/10/24 03:42:24;;;;;;;641.73;593.93;;;16.50;22.10;;;;;;4973942;28;20185;-70
2022/10/24 03:44:50;;;;;;;791.03;727.17;;;16.50;22.00;;;;;;4974050;28;20184;-70
2022/10/24 03:47:15;;;;;;;763.10;700.67;;;16.60;21.60;;;;;;4974134;28;20215;-69
2022/10/24 03:49:41;;;;;;;821.73;760.70;;;16.60;21.40;;;;;;4973794;28;20216;-69
2022/10/24 03:52:07;;;;;;;744.87;684.47;;;16.70;21.40;;;;;;4973759;28;20754;-70
2022/10/24 03:54:33;;;;;;;756.87;701.60;;;16.60;21.50;;;;;;4973982;28;20177;-69
2022/10/24 03:56:59;;;;;;;835.63;777.27;;;16.60;21.30;;;;;;4974625;28;20989;-69
2022/10/24 03:59:24;;;;;;;758.73;706.03;;;16.60;21.20;;;;;;4974437;28;20421;-73
2022/10/24 04:01:50;;;;;;;876.23;813.30;;;16.70;21.10;;;;;;4974133;28;20201;-71
2022/10/24 04:04:15;;;;;;;792.70;735.60;;;16.60;21.10;;;;;;4974108;28;20182;-70
2022/10/24 04:06:41;;;;;;;549.07;508.90;;;16.70;20.90;;;;;;4963063;28;20611;-70
2022/10/24 04:09:07;;;;;;;857.90;793.53;;;16.60;21.10;;;;;;4973801;28;20205;-70
2022/10/24 04:11:32;;;;;;;788.97;733.47;;;16.60;21.10;;;;;;4973535;28;20272;-70
2022/10/24 04:13:59;;;;;;;668.70;613.87;;;16.50;21.30;;;;;;4973752;28;20177;-69
2022/10/24 04:16:25;;;;;;;799.63;744.53;;;16.60;21.10;;;;;;4973428;28;20181;-69
2022/10/24 04:18:51;;;;;;;735.33;680.83;;;16.60;21.40;;;;;;4972470;28;20938;-69
2022/10/24 04:21:17;;;;;;;777.40;712.83;;;16.60;21.30;;;;;;4973329;28;20452;-70
2022/10/24 04:23:43;;;;;;;483.03;447.07;;;16.60;21.30;;;;;;4972347;28;20177;-69
2022/10/24 04:26:12;;;;;;;628.20;578.03;;;16.60;21.80;;;;;;4973855;28;20476;-69
2022/10/24 04:28:38;;;;;;;884.00;806.10;;;16.60;21.30;;;;;;4973609;28;20177;-70
2022/10/24 04:31:04;;;;;;;492.03;456.57;;;16.60;21.30;;;;;;4973385;28;20448;-70
2022/10/24 04:33:29;;;;;;;900.20;823.80;;;16.60;21.30;;;;;;4973550;28;20181;-70
2022/10/24 04:35:55;;;;;;;918.47;852.57;;;16.60;21.00;;;;;;4973270;28;20413;-70
2022/10/24 04:38:21;;;;;;;635.90;580.90;;;16.60;20.50;;;;;;4973480;28;20173;-70
2022/10/24 04:40:53;;;;;;;884.50;809.47;;;16.60;20.70;;;;;;4973002;28;20197;-69
2022/10/24 04:43:20;;;;;;;774.63;714.27;;;16.70;20.50;;;;;;4973504;28;20914;-69
2022/10/24 04:45:46;;;;;;;887.10;822.33;;;16.60;19.90;;;;;;4972900;28;20419;-70
2022/10/24 04:48:13;;;;;;;366.13;337.90;;;16.60;19.90;;;;;;4973156;28;20424;-69
2022/10/24 04:50:40;;;;;;;769.47;704.10;;;16.70;19.70;;;;;;4972631;28;20530;-70
2022/10/24 04:53:06;;;;;;;630.47;585.03;;;16.70;19.50;;;;;;4972770;28;20574;-70
2022/10/24 04:55:32;;;;;;;741.33;687.53;;;16.80;19.50;;;;;;4972967;28;20409;-70
2022/10/24 04:57:57;;;;;;;750.70;682.70;;;16.80;19.20;;;;;;4972821;28;20180;-70
2022/10/24 05:00:23;;;;;;;810.77;748.27;;;16.80;19.20;;;;;;4972777;28;20216;-70
2022/10/24 05:02:49;;;;;;;901.10;818.63;;;16.80;18.70;;;;;;4972635;28;20268;-70
2022/10/24 05:05:16;;;;;;;793.77;737.70;;;16.90;19.40;;;;;;4972911;28;20417;-70
2022/10/24 05:07:42;;;;;;;741.80;685.67;;;16.80;19.90;;;;;;4972926;28;20225;-70
2022/10/24 05:10:08;;;;;;;1024.70;931.60;;;16.80;20.50;;;;;;4972680;28;20555;-70
2022/10/24 05:12:33;;;;;;;868.07;804.20;;;16.80;21.00;;;;;;4971305;28;20519;-70
2022/10/24 05:14:59;;;;;;;822.90;752.03;;;16.70;21.30;;;;;;4972715;28;20467;-70
2022/10/24 05:17:24;;;;;;;1215.57;999.90;;;16.70;21.70;;;;;;4972794;28;20173;-70
2022/10/24 05:19:50;;;;;;;638.87;581.70;;;16.70;21.50;;;;;;4972815;28;20187;-70
2022/10/24 05:22:16;;;;;;;1007.40;918.07;;;16.60;22.00;;;;;;4972443;28;20177;-70
2022/10/24 05:24:41;;;;;;;690.83;639.23;;;16.50;20.40;;;;;;4972732;28;20192;-69
2022/10/24 05:27:07;;;;;;;881.47;805.73;;;16.60;20.60;;;;;;4972733;28;20185;-69
2022/10/24 05:29:32;;;;;;;960.37;877.83;;;16.60;19.80;;;;;;4972584;28;20198;-69
2022/10/24 05:31:58;;;;;;;722.73;657.87;;;16.60;20.20;;;;;;4970990;28;20217;-68
2022/10/24 05:34:24;;;;;;;287.33;264.30;;;16.60;20.60;;;;;;4972724;28;20184;-69
2022/10/24 05:36:50;;;;;;;632.53;583.17;;;16.60;20.80;;;;;;4972305;28;20316;-68
2022/10/24 05:39:15;;;;;;;544.60;497.33;;;16.60;20.50;;;;;;4973363;28;20559;-69
2022/10/24 05:41:41;;;;;;;653.80;588.97;;;16.60;20.60;;;;;;4975922;28;20200;-69
2022/10/24 05:44:07;;;;;;;635.23;586.70;;;16.60;20.50;;;;;;4976352;28;20181;-67
2022/10/24 05:46:33;;;;;;;836.87;765.90;;;16.60;20.90;;;;;;4976167;28;20264;-68
2022/10/24 05:48:58;;;;;;;679.40;620.83;;;16.50;20.40;;;;;;4976214;28;20555;-68
2022/10/24 05:51:26;;;;;;;731.83;671.20;;;16.60;20.60;;;;;;4975755;28;20220;-68
2022/10/24 05:53:51;;;;;;;959.07;874.90;;;16.60;20.80;;;;;;4976148;28;20177;-69
2022/10/24 05:56:17;;;;;;;282.47;260.83;;;16.60;19.70;;;;;;4975984;28;20417;-68
2022/10/24 05:58:42;;;;;;;771.03;707.13;;;16.70;19.90;;;;;;4975992;28;20249;-68
2022/10/24 06:01:08;;;;;;;870.63;808.23;;;16.60;20.50;;;;;;4976227;28;20217;-68
2022/10/24 06:03:34;;;;;;;779.83;713.07;;;16.50;19.80;;;;;;4975709;28;20178;-68
2022/10/24 06:06:04;;;;;;;553.83;511.20;;;16.60;19.40;;;;;;4972557;28;20178;-70
2022/10/24 06:08:29;;;;;;;791.13;724.40;;;16.60;19.70;;;;;;4966424;28;20188;-69
2022/10/24 06:10:55;;;;;;;618.10;565.90;;;16.60;19.90;;;;;;4956228;28;20522;-69
2022/10/24 06:13:23;;;;;;;929.40;864.10;;;16.50;20.20;;;;;;4965693;28;20236;-68
2022/10/24 06:15:49;;;;;;;497.60;459.43;;;16.50;19.80;;;;;;4975680;28;20201;-69
2022/10/24 06:18:14;;;;;;;1000.00;912.50;;;16.50;19.70;;;;;;4975432;28;20528;-68
2022/10/24 06:20:40;;;;;;;365.47;335.07;;;16.60;20.10;;;;;;4975702;28;20205;-69
2022/10/24 06:23:05;;;;;;;805.60;742.90;;;16.60;20.60;;;;;;4975430;28;20213;-69
2022/10/24 06:25:31;;;;;;;318.77;298.73;;;16.60;20.70;;;;;;4963733;28;20189;-69
2022/10/24 06:27:57;;;;;;;802.03;735.33;;;16.60;21.40;;;;;;4956064;28;20186;-69
2022/10/24 06:30:22;;;;;;;524.53;487.27;;;16.60;21.70;;;;;;4966937;28;20777;-69
2022/10/24 06:32:48;;;;;;;355.33;328.83;;;16.60;22.90;;;;;;4972541;28;20189;-69
2022/10/24 06:35:14;;;;;;;742.07;687.40;;;16.50;23.10;;;;;;4971286;28;20193;-70
2022/10/24 06:37:40;;;;;;;393.37;365.70;;;16.50;24.30;;;;;;4973382;28;20185;-70
2022/10/24 06:40:07;;;;;;;1129.40;999.90;;;16.40;25.20;;;;;;4970995;28;20448;-71
2022/10/24 06:42:32;;;;;;;597.93;554.50;;;16.40;25.20;;;;;;4971660;28;20420;-70
2022/10/24 06:44:58;;;;;;;913.80;848.83;;;16.30;26.10;;;;;;4970134;28;20511;-71
2022/10/24 06:47:23;;;;;;;808.33;748.90;;;16.10;27.50;;;;;;4970769;28;20197;-71
2022/10/24 06:49:49;;;;;;;359.87;335.57;;;16.00;28.10;;;;;;4970403;28;20244;-71
2022/10/24 06:52:14;;;;;;;569.80;531.83;;;16.00;28.80;;;;;;4973895;28;20679;-71
2022/10/24 06:54:40;;;;;;;684.23;635.67;;;16.00;27.40;;;;;;4971581;28;20643;-69
2022/10/24 06:57:06;;;;;;;683.33;636.17;;;16.00;27.10;;;;;;4971666;28;20541;-69
2022/10/24 06:59:32;;;;;;;299.20;278.03;;;16.00;27.40;;;;;;4971440;28;20230;-69
2022/10/24 07:01:58;;;;;;;441.97;413.20;;;16.00;28.60;;;;;;4960887;28;20446;-69
2022/10/24 07:04:24;;;;;;;827.80;769.70;;;16.20;28.40;;;;;;4950558;29;20451;-69
2022/10/24 07:06:49;;;;;;;544.47;504.67;;;16.20;28.60;;;;;;4961699;28;20208;-69
2022/10/24 07:09:16;;;;;;;766.23;712.80;;;16.20;29.40;;;;;;4971080;28;20468;-69
2022/10/24 07:11:42;;;;;;;422.17;393.93;;;16.10;30.00;;;;;;4965729;28;20202;-69
2022/10/24 07:14:08;;;;;;;751.37;698.00;;;16.20;30.90;;;;;;4960432;28;20509;-69
2022/10/24 07:16:35;;;;;;;692.77;644.47;;;16.20;29.60;;;;;;4970891;28;20432;-70
2022/10/24 07:19:01;;;;;;;783.33;729.43;;;16.30;29.30;;;;;;4970148;28;20523;-70
2022/10/24 07:21:28;;;;;;;689.90;638.83;;;16.30;29.00;;;;;;4969709;28;20552;-70
2022/10/24 07:23:55;;;;;;;779.67;724.77;;;16.30;29.50;;;;;;4970886;28;20561;-70
2022/10/24 07:26:23;;;;;;;413.57;384.00;;;16.30;29.10;;;;;;4970811;28;20433;-70
2022/10/24 07:28:53;;;;;;;705.50;655.10;;;16.30;29.00;;;;;;4970396;28;20490;-70
2022/10/24 07:31:24;;;;;;;640.87;593.90;;;16.30;29.70;;;;;;4970255;28;20440;-70
2022/10/24 07:33:51;;;;;;;715.20;665.70;;;15.90;30.90;;;;;;4970680;28;20436;-70
2022/10/24 07:36:19;;;;;;;534.93;497.77;;;15.70;33.10;;;;;;4955681;28;20449;-68
2022/10/24 07:38:46;;;;;;;448.10;413.50;;;15.50;33.40;;;;;;4969946;28;20432;-68
2022/10/24 07:41:11;;;;;;;578.37;535.40;;;15.40;32.60;;;;;;4969185;28;20440;-68
2022/10/24 07:43:37;;;;;;;683.13;636.93;;;15.50;34.00;;;;;;4952670;28;20445;-70
2022/10/24 07:46:08;;;;;;;828.27;771.60;;;15.50;33.60;;;;;;4950308;28;20209;-70
2022/10/24 07:48:34;;;;;;;752.50;700.80;;;15.60;34.30;;;;;;4949218;29;20193;-70
2022/10/24 07:51:03;;;;;;;909.33;845.80;;;15.60;33.60;;;;;;4982337;23;20492;-71
2022/10/24 07:53:29;;;;;;;909.60;844.37;;;15.70;33.50;;;;;;4971399;28;20417;-72
2022/10/24 07:55:57;;;;;;;208.47;194.20;;;15.60;34.30;;;;;;4973724;28;20427;-72
2022/10/24 07:58:22;;;;;;;302.77;283.20;;;15.80;35.50;;;;;;4973947;28;20177;-71
2022/10/24 08:00:48;;;;;;;820.23;763.87;;;15.90;34.30;;;;;;4973426;28;20547;-71
2022/10/24 08:03:14;;;;;;;735.70;686.57;;;16.00;34.20;;;;;;4972869;28;20556;-71
2022/10/24 08:05:40;;;;;;;788.50;730.63;;;16.00;34.30;;;;;;4974150;28;20182;-72
2022/10/24 08:08:06;;;;;;;561.77;524.30;;;16.10;33.20;;;;;;4973883;28;20196;-72
2022/10/24 08:10:32;;;;;;;387.70;359.53;;;16.20;32.20;;;;;;4974057;28;20837;-72
2022/10/24 08:12:58;;;;;;;701.37;652.03;;;16.30;32.30;;;;;;4973972;28;20431;-70
2022/10/24 08:15:26;;;;;;;779.50;724.67;;;16.40;31.40;;;;;;4974109;28;20686;-71
2022/10/24 08:17:52;;;;;;;592.00;551.37;;;16.30;32.20;;;;;;4974127;28;20177;-72
2022/10/24 08:20:19;;;;;;;700.73;651.10;;;16.20;32.20;;;;;;4972443;28;20436;-72
2022/10/24 08:22:44;;;;;;;775.93;721.60;;;16.20;32.80;;;;;;4973728;28;20468;-71
2022/10/24 08:25:10;;;;;;;751.90;699.03;;;16.20;32.10;;;;;;4973602;28;20480;-71
2022/10/24 08:27:36;;;;;;;901.43;833.17;;;16.30;31.20;;;;;;4973711;28;20185;-71
2022/10/24 08:30:03;;;;;;;552.87;512.40;;;16.30;31.30;;;;;;4973408;28;20478;-71
2022/10/24 08:32:28;;;;;;;657.27;612.03;;;16.40;31.40;;;;;;4973229;28;20245;-71
2022/10/24 08:34:54;;;;;;;619.27;576.07;;;16.50;31.50;;;;;;4973401;28;20425;-71
2022/10/24 08:37:19;;;;;;;552.30;512.53;;;16.40;31.30;;;;;;4972565;28;20272;-71
2022/10/24 08:39:45;;;;;;;810.97;754.00;;;16.40;31.30;;;;;;4973596;28;20667;-71
2022/10/24 08:42:15;;;;;;;627.67;584.20;;;16.40;31.40;;;;;;4973058;28;20281;-70
2022/10/24 08:44:46;;;;;;;693.63;644.23;;;16.30;31.20;;;;;;4973474;28;20184;-70
2022/10/24 08:47:39;;;;;;;820.60;761.53;;;16.30;30.10;;;;;;4973654;28;20921;-71
2022/10/24 08:50:26;;;;;;;475.53;442.07;;;16.20;29.30;;;;;;4973014;28;20464;-71
2022/10/24 08:53:12;;;;;;;809.90;754.67;;;16.10;30.50;;;;;;4971798;28;20437;-71
2022/10/24 08:55:52;;;;;;;692.03;644.70;;;16.10;29.70;;;;;;4973349;28;20994;-71
2022/10/24 08:58:32;;;;;;;583.03;541.77;;;16.20;29.50;;;;;;4971852;28;20428;-71
2022/10/24 09:01:01;;;;;;;652.23;605.40;;;16.10;29.50;;;;;;4972852;28;20432;-73
2022/10/24 09:03:36;;;;;;;646.47;601.60;;;16.10;29.80;;;;;;4973068;28;20496;-70
2022/10/24 09:06:12;;;;;;;723.83;672.47;;;16.10;29.90;;;;;;4973145;28;20495;-69
2022/10/24 09:08:42;;;;;;;633.60;589.23;;;16.20;29.70;;;;;;4973124;28;20416;-70
2022/10/24 09:11:19;;;;;;;770.33;715.00;;;16.20;29.70;;;;;;4972842;28;20949;-69
2022/10/24 09:13:45;;;;;;;757.30;702.17;;;16.20;29.90;;;;;;4972857;28;20753;-70
2022/10/24 09:16:15;;;;;;;569.27;529.47;;;16.30;29.50;;;;;;4977051;28;20416;-69
2022/10/24 09:18:43;;;;;;;592.33;550.97;;;16.30;29.60;;;;;;4975758;28;20413;-70
2022/10/24 09:21:13;;;;;;;524.70;487.13;;;16.30;29.10;;;;;;4969001;28;20850;-70
2022/10/24 09:23:39;;;;;;;683.23;635.13;;;16.40;28.50;;;;;;4971255;28;20412;-69
2022/10/24 09:26:14;;;;;;;725.97;672.57;;;16.40;27.50;;;;;;4977122;28;20918;-69
2022/10/24 09:28:41;;;;;;;821.53;763.63;;;16.50;27.60;;;;;;4976956;28;20418;-69
2022/10/24 09:31:16;;;;;;;762.70;707.27;;;16.40;27.20;;;;;;4976401;28;20440;-69
2022/10/24 09:33:44;;;;;;;573.57;532.67;;;16.50;27.20;;;;;;4977028;28;20424;-69
2022/10/24 09:36:17;;;;;;;640.20;594.13;;;16.40;27.00;;;;;;4976604;28;20467;-69
2022/10/24 09:38:45;;;;;;;534.90;497.17;;;16.50;27.10;;;;;;4976959;28;20495;-69
2022/10/24 09:41:27;;;;;;;365.87;339.00;;;16.50;27.10;;;;;;4976281;28;20479;-69
2022/10/24 09:43:55;;;;;;;736.67;684.63;;;16.60;27.30;;;;;;4976634;28;20483;-69
2022/10/24 09:46:24;;;;;;;417.87;386.30;;;16.50;27.10;;;;;;4976585;28;20459;-69
2022/10/24 09:49:13;;;;;;;814.80;755.43;;;16.60;26.10;;;;;;4976505;28;20424;-70
2022/10/24 09:51:46;;;;;;;621.87;577.50;;;16.60;25.40;;;;;;4974868;28;20484;-70
2022/10/24 09:54:19;;;;;;;923.37;856.97;;;16.50;24.70;;;;;;4976723;28;20523;-70
2022/10/24 09:56:57;;;;;;;840.87;783.93;;;16.50;25.40;;;;;;4976443;28;20513;-71
2022/10/24 09:59:56;;;;;;;656.67;610.40;;;16.50;24.60;;;;;;4976780;28;20479;-70
2022/10/24 10:02:28;;;;;;;840.57;780.37;;;16.50;24.10;;;;;;4975918;28;20791;-70
2022/10/24 10:05:03;;;;;;;712.07;659.67;;;16.60;23.30;;;;;;4976533;28;20933;-71
2022/10/24 10:07:30;;;;;;;445.60;412.97;;;16.50;22.80;;;;;;4976510;28;20427;-70
2022/10/24 10:09:59;;;;;;;771.00;714.07;;;16.50;22.80;;;;;;4976529;28;20464;-71
2022/10/24 10:12:37;;;;;;;702.63;653.53;;;16.40;22.50;;;;;;4975967;28;20444;-71
2022/10/24 10:15:28;;;;;;;614.80;570.50;;;16.40;22.70;;;;;;4976111;28;20932;-71
2022/10/24 10:17:58;;;;;;;591.83;549.27;;;16.30;22.70;;;;;;4976234;28;20422;-71
2022/10/24 10:20:27;;;;;;;696.20;646.90;;;16.30;23.40;;;;;;4974392;28;20455;-69
2022/10/24 10:22:52;;;;;;;615.77;570.33;;;16.20;24.90;;;;;;4975677;28;20421;-72
2022/10/24 10:25:31;;;;;;;580.93;538.40;;;16.20;24.30;;;;;;4975611;28;20474;-70
2022/10/24 10:27:57;;;;;;;710.80;660.40;;;16.10;25.50;;;;;;4975881;28;20185;-72
2022/10/24 10:30:24;;;;;;;678.87;632.33;;;16.00;24.60;;;;;;4975601;28;20479;-72
2022/10/24 10:32:52;;;;;;;697.37;646.33;;;16.10;23.40;;;;;;4974540;28;20661;-70
2022/10/24 10:35:46;;;;;;;724.73;673.80;;;16.20;23.70;;;;;;4975543;28;20424;-70
2022/10/24 10:38:34;;;;;;;657.10;611.20;;;16.30;24.50;;;;;;4976063;28;20413;-71
2022/10/24 10:41:14;;;;;;;637.87;592.37;;;16.30;23.40;;;;;;4975343;28;20933;-70
2022/10/24 10:43:50;;;;;;;782.87;722.20;;;16.30;23.70;;;;;;4975499;28;20527;-69
2022/10/24 10:46:29;;;;;;;785.67;725.43;;;16.40;22.70;;;;;;4975478;28;20416;-69
2022/10/24 10:49:20;;;;;;;686.23;639.07;;;16.40;23.10;;;;;;4975399;28;20965;-69
2022/10/24 10:51:59;;;;;;;686.50;636.90;;;16.40;23.50;;;;;;4975043;28;20492;-69
2022/10/24 10:54:40;;;;;;;764.03;709.40;;;16.60;22.90;;;;;;4975462;28;20463;-69
2022/10/24 10:57:13;;;;;;;616.30;572.33;;;16.70;22.30;;;;;;4975889;28;20405;-69
2022/10/24 10:59:59;;;;;;;502.20;465.00;;;16.80;22.80;;;;;;4975920;28;20918;-69
2022/10/24 11:02:51;;;;;;;646.07;598.03;;;17.10;23.20;;;;;;4973779;28;20509;-69
2022/10/24 11:05:39;;;;;;;624.17;579.00;;;17.10;21.70;;;;;;4975305;28;20573;-69
2022/10/24 11:08:12;;;;;;;490.57;453.13;;;17.10;21.60;;;;;;4975517;28;20782;-70
2022/10/24 11:10:51;;;;;;;817.33;759.27;;;17.20;21.80;;;;;;4975687;28;20468;-69
2022/10/24 11:13:25;;;;;;;751.67;697.30;;;17.30;21.30;;;;;;4975225;28;20421;-69
2022/10/24 11:15:55;;;;;;;857.10;786.70;;;17.40;20.40;;;;;;4975469;28;20507;-69
2022/10/24 11:18:26;;;;;;;774.13;718.07;;;17.40;20.30;;;;;;4973887;28;20508;-69
2022/10/24 11:20:58;;;;;;;797.53;742.90;;;17.30;20.10;;;;;;4974945;28;20504;-70
2022/10/24 11:23:57;;;;;;;755.00;701.43;;;17.10;21.50;;;;;;4975569;28;20444;-68
2022/10/24 11:26:32;;;;;;;172.30;160.00;;;16.90;21.90;;;;;;4974977;28;20933;-69
2022/10/24 11:29:14;;;;;;;909.67;844.33;;;16.90;23.90;;;;;;4974599;28;20462;-69
2022/10/24 11:31:46;;;;;;;796.77;741.43;;;16.90;24.00;;;;;;4974859;28;20448;-69
2022/10/24 11:34:24;;;;;;;564.03;523.77;;;16.80;24.70;;;;;;4974884;28;20466;-70
2022/10/24 11:37:11;;;;;;;837.20;775.83;;;16.80;24.40;;;;;;4974574;28;20748;-68
2022/10/24 11:39:48;;;;;;;355.70;329.57;;;17.00;23.50;;;;;;4975132;28;20412;-71
2022/10/24 11:42:22;;;;;;;716.17;664.40;;;17.20;22.50;;;;;;4974458;28;20435;-71
2022/10/24 11:45:05;;;;;;;787.87;733.87;;;17.20;22.60;;;;;;4974889;28;20474;-71
2022/10/24 11:47:42;;;;;;;754.97;699.83;;;17.40;21.50;;;;;;4975106;28;20436;-70
2022/10/24 11:50:20;;;;;;;840.97;770.07;;;17.40;21.60;;;;;;4974600;28;20507;-71
2022/10/24 11:52:51;;;;;;;553.57;513.67;;;17.50;19.70;;;;;;4974508;28;20413;-71
2022/10/24 11:55:27;;;;;;;630.43;584.83;;;17.60;20.20;;;;;;4974358;28;20413;-71
2022/10/24 11:57:56;;;;;;;328.17;305.67;;;17.70;20.80;;;;;;4974690;28;20443;-70
2022/10/24 12:00:36;;;;;;;821.50;765.63;;;17.60;19.60;;;;;;4974262;28;20437;-71
2022/10/24 12:03:19;;;;;;;472.10;438.27;;;17.60;19.30;;;;;;4973843;28;20483;-71
2022/10/24 12:05:45;;;;;;;619.90;574.90;;;17.60;19.30;;;;;;4974275;28;20417;-70
2022/10/24 12:08:32;;;;;;;626.50;578.33;;;17.60;20.50;;;;;;4973166;28;20435;-70
2022/10/24 12:11:35;;;;;;;910.00;842.83;;;17.60;19.40;;;;;;4974032;28;20208;-71
2022/10/24 12:14:37;;;;;;;805.23;744.20;;;17.70;20.10;;;;;;4974944;28;20417;-71
2022/10/24 12:17:12;;;;;;;902.33;836.57;;;17.90;17.90;;;;;;4974038;28;20416;-72
2022/10/24 12:19:40;;;;;;;865.20;788.70;;;18.00;18.30;;;;;;4973955;28;20459;-70
2022/10/24 12:22:12;;;;;;;929.60;862.63;;;18.00;17.20;;;;;;4973745;28;20752;-72
2022/10/24 12:24:38;;;;;;;706.40;654.10;;;17.90;16.90;;;;;;4974554;28;20428;-71